Time;durP1;ratioP1;P1;durP2;ratioP2;P2;SDS_P1;SDS_P2;PMS_P1;PMS_P2;Temp;Humidity;BMP_temperature;BMP_pressure;BME280_temperature;BME280_humidity;BME280_pressure;Samples;Min_cycle;Max_cycle;Signal;HPM_P1;HPM_P2
2022/03/15 00:01:29;;;;;;;62.55;37.95;;;;;;;6.15;99.32;102312.72;7397524;19;20022;-66
2022/03/15 00:03:57;;;;;;;69.90;38.70;;;;;;;6.16;99.58;102303.19;7396423;19;20475;-65
2022/03/15 00:06:26;;;;;;;62.97;37.15;;;;;;;6.17;98.85;102299.75;7396892;19;20035;-65
2022/03/15 00:08:54;;;;;;;64.85;37.95;;;;;;;6.17;99.12;102304.97;7396392;19;20471;-65
2022/03/15 00:11:22;;;;;;;61.03;36.53;;;;;;;6.17;99.18;102318.00;7398948;19;20036;-65
2022/03/15 00:13:51;;;;;;;59.58;35.88;;;;;;;6.18;99.30;102310.19;7396623;19;20028;-65
2022/03/15 00:16:21;;;;;;;64.65;38.95;;;;;;;6.21;99.16;102308.53;7396643;19;20029;-66
2022/03/15 00:18:50;;;;;;;63.45;38.58;;;;;;;6.20;99.24;102294.59;7399335;19;20018;-65
2022/03/15 00:21:19;;;;;;;68.88;38.22;;;;;;;6.21;98.94;102292.88;7398825;19;20025;-65
2022/03/15 00:23:47;;;;;;;70.28;38.25;;;;;;;6.21;98.77;102287.66;7396394;19;20022;-65
2022/03/15 00:26:15;;;;;;;66.03;39.25;;;;;;;6.22;98.77;102286.78;7396442;19;20022;-65
2022/03/15 00:28:43;;;;;;;63.67;37.47;;;;;;;6.22;98.70;102278.97;7398216;19;20404;-65
2022/03/15 00:31:11;;;;;;;60.28;37.22;;;;;;;6.23;98.36;102275.53;7394956;19;20019;-66
2022/03/15 00:33:42;;;;;;;66.82;39.50;;;;;;;6.21;98.51;102272.91;7395955;19;20035;-65
2022/03/15 00:36:11;;;;;;;66.57;37.30;;;;;;;6.22;98.31;102278.97;7395555;19;20014;-66
2022/03/15 00:38:41;;;;;;;62.75;38.58;;;;;;;6.22;98.46;102277.28;7399008;19;20035;-67
2022/03/15 00:41:10;;;;;;;61.20;37.70;;;;;;;6.22;98.47;102276.38;7396199;19;20361;-65
2022/03/15 00:43:39;;;;;;;60.38;36.80;;;;;;;6.19;98.24;102274.59;7396444;19;20027;-65
2022/03/15 00:46:07;;;;;;;67.18;38.22;;;;;;;6.21;98.33;102278.13;7397967;19;20036;-66
2022/03/15 00:48:36;;;;;;;62.80;37.58;;;;;;;6.19;98.50;102285.00;7395461;19;20483;-65
2022/03/15 00:51:06;;;;;;;62.88;36.13;;;;;;;6.19;98.32;102293.72;7397309;19;20500;-65
2022/03/15 00:53:34;;;;;;;67.15;38.83;;;;;;;6.17;98.29;102282.38;7395993;19;20026;-65
2022/03/15 00:56:02;;;;;;;59.83;36.17;;;;;;;6.16;98.39;102288.44;7397521;19;20015;-65
2022/03/15 00:58:31;;;;;;;61.38;36.55;;;;;;;6.14;98.34;102287.53;7395110;19;20031;-65
2022/03/15 01:00:59;;;;;;;66.40;37.47;;;;;;;6.11;98.26;102286.59;7397202;19;20026;-65
2022/03/15 01:03:27;;;;;;;62.15;38.60;;;;;;;6.09;98.45;102293.47;7395317;19;20018;-65
2022/03/15 01:05:58;;;;;;;62.83;37.42;;;;;;;6.05;98.43;102289.06;7395404;19;20022;-65
2022/03/15 01:08:28;;;;;;;60.08;36.63;;;;;;;6.01;98.64;102291.56;7397354;19;20022;-65
2022/03/15 01:11:00;;;;;;;61.17;36.85;;;;;;;5.96;98.54;102289.69;7395678;19;20017;-65
2022/03/15 01:13:28;;;;;;;57.90;35.13;;;;;;;5.94;98.67;102288.78;7395296;19;20045;-65
2022/03/15 01:15:56;;;;;;;60.80;35.78;;;;;;;5.85;98.59;102277.31;7395824;19;20027;-66
2022/03/15 01:18:24;;;;;;;61.05;36.85;;;;;;;5.89;98.51;102288.69;7395025;19;20018;-65
2022/03/15 01:20:53;;;;;;;58.70;36.13;;;;;;;5.85;98.46;102285.13;7394977;19;20019;-65
2022/03/15 01:23:21;;;;;;;61.95;37.72;;;;;;;5.84;98.51;102296.38;7394669;19;20023;-65
2022/03/15 01:25:52;;;;;;;59.75;35.97;;;;;;;5.81;98.74;102292.84;7396581;19;20033;-65
2022/03/15 01:28:21;;;;;;;60.13;36.85;;;;;;;5.78;98.64;102295.38;7396116;19;20033;-65
2022/03/15 01:30:49;;;;;;;59.22;36.47;;;;;;;5.75;98.61;102293.59;7394692;19;20035;-65
2022/03/15 01:33:17;;;;;;;60.65;36.58;;;;;;;5.71;98.37;102290.03;7394956;19;20018;-65
2022/03/15 01:35:52;;;;;;;56.67;36.40;;;;;;;5.68;98.34;102289.94;7395133;19;20027;-65
2022/03/15 01:38:20;;;;;;;60.92;37.25;;;;;;;5.65;98.65;102294.19;7396175;19;20027;-66
2022/03/15 01:40:51;;;;;;;59.40;36.40;;;;;;;5.57;98.79;102291.41;7394541;19;20039;-65
2022/03/15 01:43:19;;;;;;;57.85;33.83;;;;;;;5.56;98.81;102292.28;7393790;19;20475;-65
2022/03/15 01:45:47;;;;;;;56.78;34.70;;;;;;;5.51;98.90;102299.06;7396011;19;20023;-65
2022/03/15 01:48:15;;;;;;;55.95;35.00;;;;;;;5.45;98.68;102296.34;7395456;19;20413;-65
2022/03/15 01:50:43;;;;;;;53.75;35.25;;;;;;;5.39;98.98;102297.91;7395743;19;20031;-65
2022/03/15 01:53:12;;;;;;;57.75;35.67;;;;;;;5.35;99.27;102297.84;7393590;19;20417;-65
2022/03/15 01:55:40;;;;;;;55.17;34.17;;;;;;;5.31;98.87;102304.69;7394163;19;20018;-65
2022/03/15 01:58:11;;;;;;;54.35;33.80;;;;;;;5.27;99.07;102307.16;7395725;19;20018;-65
2022/03/15 02:00:39;;;;;;;53.28;33.58;;;;;;;5.23;98.93;102308.78;7395361;19;20479;-66
2022/03/15 02:03:07;;;;;;;56.85;34.92;;;;;;;5.17;98.78;102301.72;7394885;19;20078;-65
2022/03/15 02:05:36;;;;;;;56.72;32.85;;;;;;;5.15;98.56;102310.34;7395395;19;20375;-65
2022/03/15 02:08:11;;;;;;;54.63;33.22;;;;;;;5.11;98.76;102318.91;7395373;19;20025;-66
2022/03/15 02:10:39;;;;;;;60.15;35.38;;;;;;;5.06;98.78;102316.19;7393675;19;20018;-66
2022/03/15 02:13:07;;;;;;;58.42;34.20;;;;;;;5.01;98.73;102316.03;7395837;19;20010;-66
2022/03/15 02:15:38;;;;;;;57.08;35.35;;;;;;;4.99;98.78;102324.66;7395214;19;20023;-66
2022/03/15 02:18:07;;;;;;;55.00;33.78;;;;;;;4.95;98.87;102321.09;7395314;19;20018;-66
2022/03/15 02:20:38;;;;;;;62.47;36.45;;;;;;;4.93;99.30;102324.47;7393322;19;20014;-66
2022/03/15 02:23:06;;;;;;;61.88;34.75;;;;;;;4.90;99.50;102327.88;7393199;19;20018;-65
2022/03/15 02:25:34;;;;;;;66.60;36.97;;;;;;;4.88;99.85;102324.38;7394584;19;20484;-66
2022/03/15 02:28:03;;;;;;;62.55;35.58;;;;;;;4.85;99.61;102329.47;7394930;19;20031;-65
2022/03/15 02:30:31;;;;;;;58.75;34.90;;;;;;;4.84;99.64;102331.22;7394835;19;20014;-65
2022/03/15 02:32:59;;;;;;;59.65;35.10;;;;;;;4.82;99.62;102329.41;7392784;19;20018;-66
2022/03/15 02:35:27;;;;;;;60.10;37.25;;;;;;;4.79;99.85;102331.91;7393813;19;20038;-66
2022/03/15 02:37:58;;;;;;;54.83;35.55;;;;;;;4.76;99.96;102330.09;7393227;19;20036;-66
2022/03/15 02:40:26;;;;;;;61.60;37.67;;;;;;;4.73;100.00;102336.09;7394986;19;20019;-66
2022/03/15 02:42:54;;;;;;;63.17;36.67;;;;;;;4.70;100.00;102328.22;7393446;19;20022;-66
2022/03/15 02:45:23;;;;;;;63.88;35.20;;;;;;;4.68;99.80;102334.22;7392343;19;20023;-66
2022/03/15 02:47:51;;;;;;;57.55;35.28;;;;;;;4.65;99.67;102335.03;7392378;19;20086;-66
2022/03/15 02:50:19;;;;;;;60.53;36.65;;;;;;;4.63;99.94;102339.28;7392166;19;20026;-66
2022/03/15 02:52:48;;;;;;;63.90;37.10;;;;;;;4.61;100.00;102340.94;7392020;19;20028;-66
2022/03/15 02:55:19;;;;;;;64.25;36.85;;;;;;;4.60;99.82;102346.13;7396298;19;20070;-65
2022/03/15 02:57:48;;;;;;;64.10;35.22;;;;;;;4.56;99.79;102337.34;7399181;19;20021;-66
2022/03/15 03:00:17;;;;;;;62.58;37.63;;;;;;;4.53;99.57;102339.88;7398620;19;20018;-66
2022/03/15 03:02:45;;;;;;;62.63;36.70;;;;;;;4.48;99.74;102333.66;7398356;19;20086;-66
2022/03/15 03:05:13;;;;;;;63.05;35.72;;;;;;;4.47;99.58;102347.47;7401285;19;20039;-66
2022/03/15 03:07:43;;;;;;;67.07;37.15;;;;;;;4.43;99.76;102345.63;7401138;19;20031;-66
2022/03/15 03:10:11;;;;;;;64.90;37.00;;;;;;;4.40;100.00;102338.63;7401018;19;20030;-66
2022/03/15 03:12:42;;;;;;;63.63;36.83;;;;;;;4.37;99.67;102344.63;7399869;19;20023;-66
2022/03/15 03:15:12;;;;;;;62.22;35.05;;;;;;;4.34;99.79;102341.91;7401243;19;20024;-66
2022/03/15 03:17:41;;;;;;;63.10;34.92;;;;;;;4.32;99.64;102346.19;7400643;19;20037;-65
2022/03/15 03:20:12;;;;;;;65.63;37.28;;;;;;;4.30;99.82;102347.00;7400581;19;20483;-66
2022/03/15 03:22:47;;;;;;;65.15;34.75;;;;;;;4.27;99.77;102349.47;7401089;19;20029;-65
2022/03/15 03:25:15;;;;;;;62.55;35.05;;;;;;;4.22;99.70;102354.53;7399285;19;20022;-66
2022/03/15 03:27:46;;;;;;;63.95;35.13;;;;;;;4.19;99.79;102362.25;7398021;19;20365;-66
2022/03/15 03:30:15;;;;;;;57.28;35.63;;;;;;;4.18;99.66;102360.47;7398196;19;20031;-66
2022/03/15 03:32:43;;;;;;;66.22;35.92;;;;;;;4.14;99.73;102358.63;7397697;19;20018;-66
2022/03/15 03:35:24;;;;;;;62.85;36.10;;;;;;;4.11;99.78;102364.63;7396837;19;20010;-65
2022/03/15 03:37:52;;;;;;;53.92;33.33;;;;;;;4.08;99.64;102369.69;7400555;19;20021;-66
2022/03/15 03:40:21;;;;;;;81.53;44.65;;;;;;;4.05;99.44;102360.09;7397664;19;20018;-66
2022/03/15 03:42:51;;;;;;;59.95;35.38;;;;;;;4.02;99.25;102356.50;7397548;19;20028;-65
2022/03/15 03:45:19;;;;;;;57.08;34.22;;;;;;;3.97;99.48;102358.09;7397803;19;20019;-65
2022/03/15 03:47:48;;;;;;;55.95;33.33;;;;;;;3.94;99.19;102352.81;7399797;19;20022;-66
2022/03/15 03:50:16;;;;;;;62.97;35.35;;;;;;;3.89;99.42;102348.38;7397324;19;20015;-65
2022/03/15 03:52:44;;;;;;;59.92;35.03;;;;;;;3.88;99.46;102350.88;7397213;19;20035;-65
2022/03/15 03:55:12;;;;;;;58.85;34.53;;;;;;;3.84;99.18;102352.53;7399246;19;20492;-66
2022/03/15 03:57:40;;;;;;;62.53;37.50;;;;;;;3.83;99.14;102355.06;7399181;19;20578;-66
2022/03/15 04:00:12;;;;;;;71.38;42.38;;;;;;;3.81;99.33;102354.13;7397092;19;20039;-65
2022/03/15 04:02:40;;;;;;;62.00;36.70;;;;;;;3.80;99.33;102349.78;7398145;19;20500;-65
2022/03/15 04:05:09;;;;;;;59.08;35.53;;;;;;;3.76;99.21;102351.38;7397520;19;20026;-65
2022/03/15 04:07:39;;;;;;;68.05;38.47;;;;;;;3.75;99.03;102353.13;7398774;19;20035;-65
2022/03/15 04:10:08;;;;;;;64.75;37.63;;;;;;;3.71;98.97;102343.44;7397477;19;20017;-65
2022/03/15 04:12:37;;;;;;;58.42;33.95;;;;;;;3.69;98.94;102352.91;7398041;19;20018;-65
2022/03/15 04:15:06;;;;;;;53.28;33.10;;;;;;;3.68;99.10;102355.47;7396541;19;20015;-65
2022/03/15 04:17:37;;;;;;;52.38;31.88;;;;;;;3.67;99.22;102346.78;7398773;19;20018;-65
2022/03/15 04:20:06;;;;;;;56.35;33.53;;;;;;;3.65;98.88;102356.25;7395876;19;20488;-65
2022/03/15 04:22:34;;;;;;;58.88;35.03;;;;;;;3.63;99.04;102349.22;7397707;19;20390;-65
2022/03/15 04:25:02;;;;;;;53.80;32.83;;;;;;;3.61;99.01;102354.34;7397228;19;20103;-65
2022/03/15 04:27:31;;;;;;;55.72;32.30;;;;;;;3.59;98.81;102353.44;7398587;19;20010;-66
2022/03/15 04:29:59;;;;;;;51.63;32.63;;;;;;;3.56;98.90;102359.41;7396215;19;20041;-66
2022/03/15 04:32:27;;;;;;;49.38;31.25;;;;;;;3.54;98.97;102357.59;7395891;19;20018;-66
2022/03/15 04:34:58;;;;;;;50.63;30.15;;;;;;;3.50;98.77;102355.72;7395881;19;20019;-66
2022/03/15 04:37:26;;;;;;;53.47;32.15;;;;;;;3.48;98.80;102360.00;7396067;19;20023;-66
2022/03/15 04:39:56;;;;;;;53.85;32.95;;;;;;;3.43;98.99;102354.63;7395731;19;20037;-66
2022/03/15 04:42:24;;;;;;;61.00;36.08;;;;;;;3.43;98.77;102357.22;7395452;19;20361;-67
2022/03/15 04:44:53;;;;;;;60.22;36.80;;;;;;;3.40;98.58;102360.59;7396213;19;20031;-66
2022/03/15 04:47:22;;;;;;;62.47;35.80;;;;;;;3.39;98.71;102357.97;7397556;19;20035;-66
2022/03/15 04:49:50;;;;;;;70.22;37.75;;;;;;;3.37;98.91;102357.03;7395428;19;20082;-66
2022/03/15 04:52:21;;;;;;;61.70;35.35;;;;;;;3.35;98.93;102351.78;7396885;19;20035;-66
2022/03/15 04:54:49;;;;;;;59.58;36.03;;;;;;;3.34;98.68;102357.81;7395383;19;20018;-65
2022/03/15 04:57:17;;;;;;;66.47;36.78;;;;;;;3.33;98.97;102360.34;7394854;19;20480;-66
2022/03/15 04:59:45;;;;;;;69.13;36.47;;;;;;;3.33;99.15;102355.16;7395291;19;20014;-65
2022/03/15 05:02:13;;;;;;;61.80;36.75;;;;;;;3.30;99.08;102361.13;7396394;19;20480;-66
2022/03/15 05:04:41;;;;;;;64.00;36.28;;;;;;;3.30;99.23;102350.75;7396289;19;20480;-66
2022/03/15 05:07:09;;;;;;;61.78;36.30;;;;;;;3.28;99.05;102344.63;7396460;19;20398;-66
2022/03/15 05:11:06;;;;;;;68.80;36.08;;;;;;;3.29;99.05;102345.53;7394871;19;20014;-66
2022/03/15 05:12:26;;;;;;;66.75;37.00;;;;;;;3.29;99.12;102332.56;7396236;19;20014;-66
2022/03/15 05:14:55;;;;;;;68.75;37.20;;;;;;;3.26;99.28;102339.38;7395191;19;20483;-66
2022/03/15 05:17:24;;;;;;;67.97;37.17;;;;;;;3.30;99.00;102337.78;7393734;19;20026;-66
2022/03/15 05:19:52;;;;;;;67.43;36.88;;;;;;;3.30;99.13;102332.59;7395392;19;20401;-65
2022/03/15 05:22:21;;;;;;;65.55;37.30;;;;;;;3.29;99.34;102332.56;7394539;19;20022;-66
2022/03/15 05:24:51;;;;;;;64.40;37.47;;;;;;;3.31;99.05;102336.06;7394363;19;20085;-66
2022/03/15 05:27:20;;;;;;;64.55;37.20;;;;;;;3.29;99.37;102330.81;7396714;19;20039;-66
2022/03/15 05:29:48;;;;;;;65.72;37.10;;;;;;;3.31;99.36;102330.88;7396111;19;20018;-66
2022/03/15 05:32:17;;;;;;;66.53;37.08;;;;;;;3.31;99.19;102342.16;7394069;19;20041;-66
2022/03/15 05:34:45;;;;;;;66.22;36.75;;;;;;;3.31;99.33;102336.97;7395285;19;20018;-66
2022/03/15 05:37:19;;;;;;;66.25;35.53;;;;;;;3.30;99.36;102335.19;7393932;19;20362;-66
2022/03/15 05:39:47;;;;;;;69.65;37.97;;;;;;;3.30;98.98;102335.19;7393812;19;20035;-66
2022/03/15 05:42:18;;;;;;;60.88;35.65;;;;;;;3.30;99.25;102335.19;7395370;19;20051;-65
2022/03/15 05:44:47;;;;;;;62.03;34.83;;;;;;;3.28;99.14;102326.47;7394174;19;20019;-65
2022/03/15 05:47:15;;;;;;;62.95;33.63;;;;;;;3.29;99.21;102330.81;7394117;19;20014;-66
2022/03/15 05:49:43;;;;;;;61.88;34.13;;;;;;;3.28;99.29;102331.66;7395561;19;20022;-66
2022/03/15 05:52:11;;;;;;;61.92;34.10;;;;;;;3.28;99.26;102333.38;7393600;19;20086;-65
2022/03/15 05:54:39;;;;;;;57.92;33.90;;;;;;;3.28;99.14;102341.16;7395193;19;20024;-66
2022/03/15 05:57:08;;;;;;;65.75;35.10;;;;;;;3.26;99.36;102331.59;7392928;19;20035;-66
2022/03/15 05:59:39;;;;;;;59.95;34.65;;;;;;;3.26;99.49;102326.41;7393822;19;20028;-66
2022/03/15 06:02:07;;;;;;;64.97;36.70;;;;;;;3.27;99.36;102337.66;7393516;19;20035;-65
2022/03/15 06:04:35;;;;;;;62.80;36.92;;;;;;;3.28;99.24;102339.44;7392100;19;20321;-66
2022/03/15 06:07:04;;;;;;;61.85;36.20;;;;;;;3.28;99.29;102329.06;7392318;19;20022;-65
2022/03/15 06:09:32;;;;;;;56.85;34.47;;;;;;;3.31;99.18;102347.34;7392375;19;20483;-66
2022/03/15 06:12:00;;;;;;;61.78;35.35;;;;;;;3.33;99.33;102347.38;7394515;19;20018;-68
2022/03/15 06:14:28;;;;;;;64.70;35.42;;;;;;;3.33;99.26;102345.66;7392801;19;20015;-65
2022/03/15 06:16:59;;;;;;;61.20;35.10;;;;;;;3.35;99.40;102337.91;7392893;19;20027;-65
2022/03/15 06:19:28;;;;;;;54.72;34.58;;;;;;;3.37;99.35;102341.47;7392559;19;20022;-65
2022/03/15 06:21:56;;;;;;;60.00;35.63;;;;;;;3.37;99.32;102341.47;7393925;19;20028;-66
2022/03/15 06:24:26;;;;;;;60.63;33.63;;;;;;;3.39;99.33;102338.09;7393044;19;20090;-66
2022/03/15 06:26:54;;;;;;;56.25;32.83;;;;;;;3.41;99.51;102336.44;7394843;19;20015;-68
2022/03/15 06:29:22;;;;;;;57.80;34.08;;;;;;;3.43;99.38;102337.34;7392707;19;20022;-64
2022/03/15 06:31:51;;;;;;;58.63;34.67;;;;;;;3.47;99.45;102345.25;7398719;19;20035;-64
2022/03/15 06:34:22;;;;;;;58.83;34.58;;;;;;;3.48;99.39;102334.91;7398551;19;20014;-65
2022/03/15 06:36:50;;;;;;;57.53;35.25;;;;;;;3.51;99.36;102339.31;7397593;19;20011;-66
2022/03/15 06:39:18;;;;;;;59.15;35.63;;;;;;;3.54;99.26;102344.63;7397792;19;20345;-65
2022/03/15 06:41:46;;;;;;;55.75;33.75;;;;;;;3.57;99.26;102342.13;7398426;19;20031;-65
2022/03/15 06:44:15;;;;;;;55.20;32.97;;;;;;;3.60;99.50;102347.41;7398581;19;20070;-65
2022/03/15 06:46:44;;;;;;;56.97;33.58;;;;;;;3.63;99.57;102344.03;7398014;19;20487;-65
2022/03/15 06:49:12;;;;;;;51.42;32.20;;;;;;;3.65;99.63;102351.06;7401362;19;20039;-67
2022/03/15 06:51:43;;;;;;;54.60;33.33;;;;;;;3.65;99.30;102348.47;7398243;19;20014;-69
2022/03/15 06:54:11;;;;;;;50.30;32.22;;;;;;;3.69;99.45;102345.13;7398277;19;20022;-65
2022/03/15 06:56:40;;;;;;;52.08;31.38;;;;;;;3.72;99.63;102347.81;7398111;19;20523;-66
2022/03/15 06:59:08;;;;;;;51.85;32.72;;;;;;;3.75;99.31;102345.31;7401045;19;20498;-66
2022/03/15 07:01:36;;;;;;;53.97;32.50;;;;;;;3.80;99.40;102357.56;7397591;19;20480;-66
2022/03/15 07:04:04;;;;;;;51.40;32.10;;;;;;;3.83;99.46;102357.66;7397791;19;20112;-66
2022/03/15 07:06:32;;;;;;;51.65;31.75;;;;;;;3.87;99.32;102359.53;7401155;19;20028;-67
2022/03/15 07:09:03;;;;;;;53.95;31.65;;;;;;;3.91;99.45;102361.38;7400504;19;20014;-66
2022/03/15 07:11:31;;;;;;;47.45;30.17;;;;;;;3.96;99.44;102359.81;7398384;19;20010;-67
2022/03/15 07:14:00;;;;;;;49.80;31.05;;;;;;;4.01;99.37;102367.75;7398235;19;20018;-66
2022/03/15 07:16:28;;;;;;;49.95;30.70;;;;;;;4.04;99.46;102370.44;7397729;19;20031;-66
2022/03/15 07:18:56;;;;;;;41.53;27.67;;;;;;;4.07;99.60;102363.63;7400201;19;20023;-65
2022/03/15 07:21:24;;;;;;;45.58;28.08;;;;;;;4.11;99.36;102358.50;7397898;19;20039;-66
2022/03/15 07:23:52;;;;;;;42.45;28.15;;;;;;;4.13;99.51;102356.84;7398009;19;20022;-66
2022/03/15 07:26:23;;;;;;;44.38;28.20;;;;;;;4.17;99.56;102351.81;7397877;19;20015;-67
2022/03/15 07:28:51;;;;;;;43.20;27.80;;;;;;;4.21;99.67;102352.78;7397759;19;20035;-66
2022/03/15 07:31:19;;;;;;;38.90;26.52;;;;;;;4.26;99.61;102353.81;7400045;19;20022;-67
2022/03/15 07:33:47;;;;;;;39.05;25.50;;;;;;;4.30;99.42;102347.00;7395886;19;20014;-66
2022/03/15 07:36:18;;;;;;;46.88;28.17;;;;;;;4.35;99.29;102348.00;7398707;19;20023;-66
2022/03/15 07:38:46;;;;;;;39.15;26.35;;;;;;;4.39;99.29;102342.94;7400190;19;20029;-67
2022/03/15 07:41:16;;;;;;;38.78;25.83;;;;;;;4.43;99.29;102343.91;7398137;19;20026;-66
2022/03/15 07:43:47;;;;;;;36.17;25.17;;;;;;;4.47;99.12;102350.94;7396773;19;20025;-66
2022/03/15 07:46:15;;;;;;;36.40;25.63;;;;;;;4.53;99.16;102337.25;7397459;19;20028;-66
2022/03/15 07:48:43;;;;;;;33.85;24.67;;;;;;;4.58;99.22;102343.47;7396762;19;20118;-66
2022/03/15 07:51:11;;;;;;;37.42;24.73;;;;;;;4.62;98.94;102345.31;7398728;19;20023;-66
2022/03/15 07:53:39;;;;;;;34.53;23.95;;;;;;;4.67;98.91;102342.84;7396797;19;20035;-67
2022/03/15 07:56:08;;;;;;;34.60;23.17;;;;;;;4.72;99.02;102344.72;7396656;19;20036;-67
2022/03/15 07:58:36;;;;;;;30.85;23.15;;;;;;;4.77;98.96;102350.06;7399137;19;20019;-69
2022/03/15 08:01:07;;;;;;;37.20;24.13;;;;;;;4.83;98.83;102338.97;7399133;19;20026;-67
2022/03/15 08:03:35;;;;;;;33.45;22.58;;;;;;;4.87;98.64;102344.28;7396988;19;20380;-67
2022/03/15 08:06:03;;;;;;;35.63;23.23;;;;;;;4.94;98.49;102342.75;7397541;19;20039;-67
2022/03/15 08:08:31;;;;;;;36.42;22.95;;;;;;;4.99;98.68;102341.16;7398401;19;20096;-67
2022/03/15 08:11:06;;;;;;;37.63;25.25;;;;;;;5.07;98.74;102341.34;7396257;19;20191;-68
2022/03/15 08:13:34;;;;;;;32.85;22.75;;;;;;;5.14;98.54;102338.06;7396398;19;20082;-67
2022/03/15 08:16:04;;;;;;;67.72;38.17;;;;;;;5.21;98.41;102329.56;7395513;19;20369;-66
2022/03/15 08:18:35;;;;;;;40.53;26.73;;;;;;;5.28;98.21;102333.25;7397872;19;20085;-66
2022/03/15 08:21:03;;;;;;;36.38;24.17;;;;;;;5.34;98.35;102328.16;7398621;19;20026;-65
2022/03/15 08:23:31;;;;;;;32.63;23.45;;;;;;;5.42;98.22;102327.50;7397982;19;20023;-67
2022/03/15 08:26:00;;;;;;;36.88;23.33;;;;;;;5.48;98.12;102330.25;7396773;19;20018;-66
2022/03/15 08:28:28;;;;;;;34.95;23.00;;;;;;;5.57;97.97;102320.03;7395847;19;20022;-67
2022/03/15 08:30:58;;;;;;;34.25;22.00;;;;;;;5.64;98.02;102315.88;7395589;19;20519;-67
2022/03/15 08:33:26;;;;;;;34.50;22.33;;;;;;;5.72;97.88;102322.16;7396228;19;20019;-67
2022/03/15 08:35:57;;;;;;;33.05;23.27;;;;;;;5.79;97.86;102313.63;7397276;19;20026;-66
2022/03/15 08:38:32;;;;;;;32.92;23.00;;;;;;;5.87;97.72;102311.22;7395610;19;20031;-67
2022/03/15 08:41:01;;;;;;;32.28;21.48;;;;;;;5.94;97.34;102309.63;7398247;19;20078;-67
2022/03/15 08:43:30;;;;;;;33.63;21.15;;;;;;;6.01;97.39;102309.81;7396095;19;20394;-67
2022/03/15 08:45:58;;;;;;;35.05;21.23;;;;;;;6.06;96.85;102307.31;7396469;19;20018;-67
2022/03/15 08:48:26;;;;;;;30.42;20.77;;;;;;;6.13;96.71;102303.13;7397671;19;20018;-67
2022/03/15 08:51:00;;;;;;;29.08;19.92;;;;;;;6.19;96.56;102305.84;7397640;19;20035;-67
2022/03/15 08:53:28;;;;;;;29.23;19.98;;;;;;;6.26;96.27;102312.97;7394012;19;20018;-65
2022/03/15 08:55:56;;;;;;;29.08;20.38;;;;;;;6.31;96.28;102308.72;7397385;19;20022;-67
2022/03/15 08:58:24;;;;;;;32.08;21.02;;;;;;;6.40;95.80;102309.78;7396837;19;20417;-66
2022/03/15 09:00:52;;;;;;;33.33;21.00;;;;;;;6.44;95.59;102307.25;7396736;19;20445;-67
2022/03/15 09:03:22;;;;;;;25.20;18.27;;;;;;;6.51;95.22;102305.66;7395466;19;20438;-67
2022/03/15 09:05:50;;;;;;;31.90;21.10;;;;;;;6.58;95.12;102304.06;7395956;19;20026;-67
2022/03/15 09:08:21;;;;;;;29.90;19.13;;;;;;;6.65;95.33;102296.38;7396412;19;20469;-67
2022/03/15 09:10:49;;;;;;;29.30;19.70;;;;;;;6.72;94.88;102299.97;7397182;19;20018;-67
2022/03/15 09:13:18;;;;;;;32.72;19.92;;;;;;;6.84;94.84;102304.56;7394326;19;20018;-67
2022/03/15 09:15:46;;;;;;;29.98;20.63;;;;;;;6.92;94.61;102302.97;7394718;19;20134;-67
2022/03/15 09:18:14;;;;;;;28.27;20.80;;;;;;;6.99;94.35;102299.63;7396491;19;20031;-68
2022/03/15 09:20:43;;;;;;;29.20;20.30;;;;;;;7.09;94.19;102303.28;7396752;19;20025;-68
2022/03/15 09:23:11;;;;;;;33.25;21.08;;;;;;;7.17;94.24;102293.84;7393797;19;20483;-67
2022/03/15 09:25:42;;;;;;;30.00;20.27;;;;;;;7.30;93.91;102292.34;7394257;19;20011;-67
2022/03/15 09:28:10;;;;;;;31.58;22.33;;;;;;;7.38;93.28;102287.25;7396515;19;20413;-67
2022/03/15 09:30:39;;;;;;;26.60;18.95;;;;;;;7.45;93.52;102278.63;7393955;19;20022;-67
2022/03/15 09:33:07;;;;;;;35.50;22.33;;;;;;;7.55;93.18;102282.28;7393766;19;20018;-68
2022/03/15 09:35:36;;;;;;;28.58;20.00;;;;;;;7.63;93.05;102280.66;7394022;19;20011;-68
2022/03/15 09:38:06;;;;;;;31.10;20.90;;;;;;;7.74;92.76;102277.34;7393929;19;20017;-67
2022/03/15 09:40:34;;;;;;;30.88;20.50;;;;;;;7.83;92.63;102285.28;7393758;19;20480;-67
2022/03/15 09:43:06;;;;;;;28.40;19.83;;;;;;;7.92;92.19;102277.59;7395094;19;20018;-66
2022/03/15 09:45:37;;;;;;;31.05;20.75;;;;;;;8.02;92.00;102281.19;7394392;19;20022;-67
2022/03/15 09:48:11;;;;;;;31.25;20.25;;;;;;;8.11;91.61;102283.06;7395661;19;20422;-67
2022/03/15 09:50:42;;;;;;;28.50;18.85;;;;;;;8.20;91.59;102272.75;7396177;19;20015;-66
2022/03/15 09:53:11;;;;;;;29.70;19.77;;;;;;;8.30;91.35;102271.09;7395180;19;20041;-66
2022/03/15 09:55:40;;;;;;;29.80;18.77;;;;;;;8.40;91.21;102272.94;7394067;19;20040;-66
2022/03/15 09:58:11;;;;;;;34.40;20.83;;;;;;;8.49;90.80;102266.97;7394315;19;20014;-67
2022/03/15 10:00:41;;;;;;;28.15;19.48;;;;;;;8.59;90.56;102266.25;7393357;19;20464;-67
2022/03/15 10:03:10;;;;;;;28.38;19.88;;;;;;;8.69;90.49;102263.72;7395289;19;20019;-66
2022/03/15 10:05:38;;;;;;;32.45;19.05;;;;;;;8.77;89.78;102262.03;7393113;19;20035;-69
2022/03/15 10:08:06;;;;;;;29.52;20.00;;;;;;;8.85;89.29;102249.94;7393101;19;20011;-67
2022/03/15 10:10:35;;;;;;;28.70;19.05;;;;;;;8.94;89.13;102250.00;7391938;19;20352;-66
2022/03/15 10:13:03;;;;;;;33.55;20.17;;;;;;;9.03;88.97;102248.34;7392402;19;20015;-66
2022/03/15 10:15:34;;;;;;;30.42;19.77;;;;;;;9.09;87.87;102246.66;7393823;19;20483;-66
2022/03/15 10:18:04;;;;;;;34.53;22.30;;;;;;;9.18;87.91;102248.47;7393343;19;20027;-67
2022/03/15 10:20:41;;;;;;;33.78;22.08;;;;;;;9.26;87.03;102240.66;7395112;19;20014;-66
2022/03/15 10:23:10;;;;;;;30.80;20.60;;;;;;;9.35;86.78;102242.50;7392188;19;20480;-66
2022/03/15 10:25:39;;;;;;;31.98;20.48;;;;;;;9.40;86.43;102235.53;7392308;19;20015;-66
2022/03/15 10:28:09;;;;;;;32.47;20.63;;;;;;;9.45;85.93;102237.34;7394169;19;20014;-66
2022/03/15 10:30:40;;;;;;;35.28;21.20;;;;;;;9.53;86.15;102224.28;7394236;19;20045;-67
2022/03/15 10:33:08;;;;;;;33.45;21.40;;;;;;;9.60;85.84;102226.09;7392302;19;20045;-67
2022/03/15 10:35:40;;;;;;;30.25;21.08;;;;;;;9.67;85.34;102228.72;7392379;19;20035;-67
2022/03/15 10:38:09;;;;;;;35.58;21.05;;;;;;;9.75;85.12;102225.28;7392220;19;20048;-67
2022/03/15 10:40:40;;;;;;;32.80;20.05;;;;;;;9.85;84.90;102234.06;7392365;19;20035;-67
2022/03/15 10:43:10;;;;;;;32.22;20.23;;;;;;;9.94;84.38;102220.13;7391637;19;20521;-67
2022/03/15 10:45:44;;;;;;;29.38;20.30;;;;;;;10.01;84.12;102221.03;7393573;19;20018;-66
2022/03/15 10:48:18;;;;;;;34.45;21.60;;;;;;;10.07;83.66;102221.06;7394013;19;20041;-66
2022/03/15 10:50:54;;;;;;;;;;;;;;;10.15;83.30;102221.97;7392055;19;20370;-66
2022/03/15 10:53:25;;;;;;;29.98;19.55;;;;;;;10.22;83.94;102220.25;7392558;19;19982;-67
2022/03/15 10:55:54;;;;;;;28.48;19.75;;;;;;;10.28;83.77;102210.63;7394292;19;20019;-67
2022/03/15 10:58:25;;;;;;;32.17;19.52;;;;;;;10.35;83.15;102206.31;7393701;19;20010;-67
2022/03/15 11:00:57;;;;;;;31.20;19.83;;;;;;;10.44;83.08;102197.59;7391948;19;20014;-67
2022/03/15 11:03:29;;;;;;;32.50;20.20;;;;;;;10.51;82.62;102207.22;7391997;19;20377;-65
2022/03/15 11:06:03;;;;;;;29.88;19.38;;;;;;;10.57;82.59;102204.59;7391643;19;20078;-66
2022/03/15 11:08:32;;;;;;;35.65;19.83;;;;;;;10.65;82.08;102207.25;7391058;19;20082;-67
2022/03/15 11:11:03;;;;;;;33.38;21.23;;;;;;;10.71;81.68;102193.28;7393053;19;20015;-67
2022/03/15 11:13:32;;;;;;;34.58;21.00;;;;;;;10.79;81.23;102194.13;7392288;19;20023;-66
2022/03/15 11:16:07;;;;;;;31.90;20.50;;;;;;;10.86;80.83;102192.41;7392775;19;20041;-67
2022/03/15 11:18:42;;;;;;;27.73;19.67;;;;;;;10.92;80.29;102193.28;7397734;19;20014;-67
2022/03/15 11:21:10;;;;;;;32.67;21.20;;;;;;;11.00;79.80;102187.16;7400210;19;20014;-65
2022/03/15 11:23:41;;;;;;;33.20;20.38;;;;;;;11.06;79.36;102187.16;7397533;19;20015;-66
2022/03/15 11:26:12;;;;;;;34.55;21.77;;;;;;;11.12;78.98;102183.63;7397787;19;20031;-71